Time;durP1;ratioP1;P1;durP2;ratioP2;P2;SDS_P1;SDS_P2;PMS_P1;PMS_P2;Temp;Humidity;BMP_temperature;BMP_pressure;BME280_temperature;BME280_humidity;BME280_pressure;Samples;Min_cycle;Max_cycle;Signal;HPM_P1;HPM_P2
2023/12/04 00:01:28;;;;;;;10.47;5.40;;;-1.70;99.90;;;;;;4192310;28;20335;-61
2023/12/04 00:03:30;;;;;;;8.10;5.23;;;-1.80;99.90;;;;;;4192748;28;20278;-60
2023/12/04 00:05:31;;;;;;;8.27;5.40;;;-1.80;99.90;;;;;;4192805;28;20746;-59
2023/12/04 00:07:32;;;;;;;11.60;5.50;;;-1.80;99.90;;;;;;4192440;28;20278;-60
2023/12/04 00:09:33;;;;;;;9.63;5.73;;;-1.80;99.90;;;;;;4192975;28;20339;-60
2023/12/04 00:11:34;;;;;;;10.03;6.10;;;-1.80;99.90;;;;;;4174553;28;20373;-60
2023/12/04 00:13:35;;;;;;;10.33;5.40;;;-1.80;99.90;;;;;;4192440;28;20783;-60
2023/12/04 00:15:37;;;;;;;13.47;5.70;;;-1.80;99.90;;;;;;4192256;28;20331;-59
2023/12/04 00:17:39;;;;;;;10.60;5.50;;;-1.80;99.90;;;;;;4191802;28;20343;-60
2023/12/04 00:19:41;;;;;;;10.03;5.83;;;-1.70;99.90;;;;;;4192015;28;20859;-60
2023/12/04 00:21:42;;;;;;;10.77;5.97;;;-1.70;99.90;;;;;;4192263;28;20743;-58
2023/12/04 00:23:43;;;;;;;9.43;5.33;;;-1.70;99.90;;;;;;4192645;28;20765;-59
2023/12/04 00:25:44;;;;;;;9.10;5.33;;;-1.70;99.90;;;;;;4192294;28;20261;-59
2023/12/04 00:27:45;;;;;;;7.30;4.40;;;-1.70;99.90;;;;;;4192126;28;20273;-60
2023/12/04 00:29:46;;;;;;;9.53;4.73;;;-1.70;99.90;;;;;;4192433;28;20688;-59
2023/12/04 00:31:47;;;;;;;8.23;4.37;;;-1.70;99.90;;;;;;4191743;28;20319;-58
2023/12/04 00:33:49;;;;;;;8.10;4.33;;;-1.70;99.90;;;;;;4192680;28;20266;-60
2023/12/04 00:35:50;;;;;;;8.80;4.50;;;-1.70;99.90;;;;;;4191559;28;20285;-60
2023/12/04 00:37:51;;;;;;;9.60;5.20;;;-1.70;99.90;;;;;;4192248;28;20769;-60
2023/12/04 00:39:52;;;;;;;9.27;5.27;;;-1.70;99.90;;;;;;4192655;28;20277;-59
2023/12/04 00:41:53;;;;;;;6.90;4.10;;;-1.70;99.90;;;;;;4192730;28;20265;-59
2023/12/04 00:43:54;;;;;;;9.00;4.97;;;-1.70;99.90;;;;;;4192235;28;20363;-59
2023/12/04 00:45:55;;;;;;;10.27;5.47;;;-1.70;99.90;;;;;;4192301;28;20846;-58
2023/12/04 00:47:57;;;;;;;10.73;5.30;;;-1.70;99.90;;;;;;4191450;28;20277;-60
2023/12/04 00:49:58;;;;;;;7.50;4.53;;;-1.70;99.90;;;;;;4192756;28;20781;-59
2023/12/04 00:51:59;;;;;;;6.73;4.40;;;-1.70;99.90;;;;;;4191637;28;20357;-59
2023/12/04 00:54:00;;;;;;;7.23;4.67;;;-1.60;99.90;;;;;;4191505;28;20270;-60
2023/12/04 00:56:01;;;;;;;9.73;4.70;;;-1.60;99.90;;;;;;4191988;28;20257;-60
2023/12/04 00:58:02;;;;;;;8.40;4.90;;;-1.60;99.90;;;;;;4192010;28;21172;-58
2023/12/04 01:00:04;;;;;;;6.47;4.13;;;-1.60;99.90;;;;;;4191104;28;20254;-58
2023/12/04 01:02:07;;;;;;;7.67;4.50;;;-1.60;99.90;;;;;;4192599;28;20830;-60
2023/12/04 01:04:08;;;;;;;7.10;4.50;;;-1.50;99.90;;;;;;4192183;28;21030;-58
2023/12/04 01:06:21;;;;;;;20.13;5.13;;;-1.50;99.90;;;;;;4191677;28;20273;-59
2023/12/04 01:08:22;;;;;;;9.30;4.60;;;-1.50;99.90;;;;;;4192352;28;20261;-58
2023/12/04 01:10:23;;;;;;;8.13;4.27;;;-1.50;99.90;;;;;;4191207;28;20730;-58
2023/12/04 01:12:25;;;;;;;6.93;4.63;;;-1.40;99.90;;;;;;4192645;28;20270;-56
2023/12/04 01:14:26;;;;;;;7.80;4.20;;;-1.50;99.90;;;;;;4191109;28;20273;-59
2023/12/04 01:16:27;;;;;;;6.53;4.30;;;-1.40;99.90;;;;;;4191221;28;20335;-59
2023/12/04 01:18:28;;;;;;;7.13;4.40;;;-1.40;99.90;;;;;;4191637;28;20296;-59
2023/12/04 01:20:29;;;;;;;7.53;4.37;;;-1.40;99.90;;;;;;4191324;28;20277;-58
2023/12/04 01:22:30;;;;;;;7.57;4.17;;;-1.40;99.90;;;;;;4191724;28;20664;-60
2023/12/04 01:24:32;;;;;;;9.47;5.13;;;-1.40;99.90;;;;;;4192147;28;20278;-59
2023/12/04 01:26:33;;;;;;;9.03;4.97;;;-1.40;99.90;;;;;;4192524;28;20282;-60
2023/12/04 01:28:34;;;;;;;7.57;4.30;;;-1.40;99.90;;;;;;4195698;28;20318;-59
2023/12/04 01:30:35;;;;;;;9.63;5.03;;;-1.40;99.90;;;;;;4194550;28;20785;-56
2023/12/04 01:32:36;;;;;;;8.70;4.40;;;-1.30;99.90;;;;;;4194615;28;20331;-60
2023/12/04 01:34:38;;;;;;;8.30;4.33;;;-1.30;99.90;;;;;;4195166;28;20257;-58
2023/12/04 01:36:42;;;;;;;7.00;4.30;;;-1.30;99.90;;;;;;4195358;28;20262;-59
2023/12/04 01:38:43;;;;;;;8.10;4.80;;;-1.40;99.90;;;;;;4195123;28;20378;-58
2023/12/04 01:40:44;;;;;;;8.43;4.83;;;-1.30;99.90;;;;;;4194314;28;20347;-57
2023/12/04 01:42:45;;;;;;;7.70;4.97;;;-1.30;99.90;;;;;;4195427;28;20807;-58
2023/12/04 01:44:46;;;;;;;6.40;4.00;;;-1.30;99.90;;;;;;4194274;28;20281;-59
2023/12/04 01:46:49;;;;;;;8.10;4.73;;;-1.30;99.90;;;;;;4194485;28;20354;-59
2023/12/04 01:48:50;;;;;;;7.30;4.43;;;-1.30;99.90;;;;;;4195112;28;20299;-61
2023/12/04 01:50:52;;;;;;;9.07;5.07;;;-1.20;99.90;;;;;;4195117;28;20296;-60
2023/12/04 01:52:53;;;;;;;7.87;4.90;;;-1.20;99.90;;;;;;4194832;28;20664;-60
2023/12/04 01:54:54;;;;;;;8.27;4.80;;;-1.20;99.90;;;;;;4195330;28;20806;-60
2023/12/04 01:56:56;;;;;;;8.27;4.87;;;-1.20;99.90;;;;;;4193733;28;20323;-60
2023/12/04 01:58:57;;;;;;;11.97;5.10;;;-1.20;99.90;;;;;;4195250;28;20657;-60
2023/12/04 02:00:59;;;;;;;8.50;4.67;;;-1.20;99.90;;;;;;4193413;28;20323;-59
2023/12/04 02:03:01;;;;;;;6.13;4.23;;;-1.20;99.90;;;;;;4195194;28;20270;-61
2023/12/04 02:05:03;;;;;;;7.47;4.77;;;-1.20;99.90;;;;;;4194444;28;20265;-60
2023/12/04 02:07:04;;;;;;;7.27;4.23;;;-1.10;99.90;;;;;;4194930;28;20707;-60
2023/12/04 02:09:06;;;;;;;7.57;4.97;;;-1.10;99.90;;;;;;4194514;28;20331;-58
2023/12/04 02:11:07;;;;;;;6.93;4.63;;;-1.10;99.90;;;;;;4193837;28;20347;-58
2023/12/04 02:13:09;;;;;;;6.97;4.37;;;-1.10;99.90;;;;;;4194201;28;20644;-59
2023/12/04 02:15:10;;;;;;;8.40;4.47;;;-1.10;99.90;;;;;;4194604;28;20257;-60
2023/12/04 02:17:15;;;;;;;7.80;4.73;;;-1.10;99.90;;;;;;4194623;28;20274;-60
2023/12/04 02:19:17;;;;;;;5.90;4.10;;;-1.10;99.90;;;;;;4194864;28;20656;-59
2023/12/04 02:21:18;;;;;;;7.00;4.30;;;-1.10;99.90;;;;;;4194869;28;20265;-59
2023/12/04 02:23:19;;;;;;;8.60;4.53;;;-1.10;99.90;;;;;;4194536;28;20332;-60
2023/12/04 02:25:20;;;;;;;7.70;4.27;;;-1.10;99.90;;;;;;4194092;28;20335;-58
2023/12/04 02:27:26;;;;;;;5.33;3.63;;;-1.00;99.90;;;;;;4193932;28;20418;-59
2023/12/04 02:29:34;;;;;;;7.73;4.33;;;-1.00;99.90;;;;;;4193793;28;20331;-61
2023/12/04 02:31:39;;;;;;;6.47;4.03;;;-1.00;99.90;;;;;;4193848;28;20265;-60
2023/12/04 02:33:41;;;;;;;6.57;3.77;;;-1.00;99.90;;;;;;4176320;28;20278;-59
2023/12/04 02:35:45;;;;;;;8.67;4.53;;;-1.00;99.90;;;;;;4193632;28;20335;-61
2023/12/04 02:37:48;;;;;;;7.87;4.13;;;-0.90;99.90;;;;;;4192808;28;20285;-61
2023/12/04 02:39:52;;;;;;;5.60;4.00;;;-1.00;99.90;;;;;;4194090;28;20273;-59
2023/12/04 02:41:53;;;;;;;7.83;4.40;;;-1.00;99.90;;;;;;4192753;28;20282;-61
2023/12/04 02:43:54;;;;;;;6.20;4.10;;;-0.90;99.90;;;;;;4194756;28;20687;-59
2023/12/04 02:45:56;;;;;;;7.30;4.20;;;-1.00;99.90;;;;;;4193530;28;20680;-59
2023/12/04 02:47:57;;;;;;;5.77;4.10;;;-0.90;99.90;;;;;;4192955;28;20327;-59
2023/12/04 02:49:58;;;;;;;10.37;5.07;;;-1.00;99.90;;;;;;4193433;28;20293;-60
2023/12/04 02:51:59;;;;;;;7.30;3.90;;;-0.90;99.90;;;;;;4192839;28;20281;-60
2023/12/04 02:54:01;;;;;;;9.00;4.93;;;-1.00;99.90;;;;;;4193306;28;20262;-58
2023/12/04 02:56:02;;;;;;;6.73;4.30;;;-1.00;99.90;;;;;;4194044;28;20273;-59
2023/12/04 02:58:03;;;;;;;8.03;4.70;;;-1.00;99.90;;;;;;4193004;28;20327;-61
2023/12/04 03:00:06;;;;;;;6.53;4.20;;;-1.00;99.90;;;;;;4193403;28;20355;-60
2023/12/04 03:02:07;;;;;;;7.50;4.33;;;-1.00;99.90;;;;;;4174633;28;20403;-59
2023/12/04 03:04:08;;;;;;;7.50;3.83;;;-1.00;99.90;;;;;;4193193;28;20273;-58
2023/12/04 03:06:10;;;;;;;7.53;4.50;;;-1.00;99.90;;;;;;4193574;28;20254;-60
2023/12/04 03:08:11;;;;;;;7.17;4.17;;;-1.00;99.90;;;;;;4193389;28;20327;-60
2023/12/04 03:10:12;;;;;;;10.13;4.67;;;-1.10;99.90;;;;;;4192524;28;20281;-60
2023/12/04 03:12:13;;;;;;;8.23;4.70;;;-1.00;99.90;;;;;;4193763;28;20303;-59
2023/12/04 03:14:14;;;;;;;7.57;4.17;;;-1.00;99.90;;;;;;4193088;28;20330;-59
2023/12/04 03:16:17;;;;;;;9.27;4.13;;;-1.10;99.90;;;;;;4193057;28;20316;-61
2023/12/04 03:18:18;;;;;;;7.23;4.00;;;-1.00;99.90;;;;;;4192794;28;20338;-54
2023/12/04 03:20:19;;;;;;;7.70;4.70;;;-1.10;99.90;;;;;;4192897;28;20297;-59
2023/12/04 03:22:20;;;;;;;6.57;4.40;;;-1.00;99.90;;;;;;4192551;28;20330;-60
2023/12/04 03:24:22;;;;;;;10.33;5.20;;;-1.10;99.90;;;;;;4192862;28;20676;-59
2023/12/04 03:26:23;;;;;;;8.80;5.33;;;-1.10;99.90;;;;;;4192718;28;20668;-60
2023/12/04 03:28:24;;;;;;;7.40;4.17;;;-1.00;99.90;;;;;;4192368;28;20351;-60
2023/12/04 03:30:25;;;;;;;9.07;4.53;;;-1.00;99.90;;;;;;4192577;28;20293;-57
2023/12/04 03:32:26;;;;;;;11.43;4.23;;;-1.00;99.90;;;;;;4190532;28;20406;-61
2023/12/04 03:34:27;;;;;;;7.77;4.43;;;-1.00;99.90;;;;;;4192869;28;20273;-59
2023/12/04 03:36:29;;;;;;;7.27;4.83;;;-1.00;99.90;;;;;;4192352;28;20270;-60
2023/12/04 03:38:30;;;;;;;8.37;4.67;;;-1.10;99.90;;;;;;4193035;28;20269;-61
2023/12/04 03:40:31;;;;;;;8.47;4.67;;;-1.00;99.90;;;;;;4192159;28;20748;-60
2023/12/04 03:42:33;;;;;;;11.83;5.17;;;-1.00;99.90;;;;;;4193463;28;20261;-61
2023/12/04 03:44:34;;;;;;;9.60;5.03;;;-1.00;99.90;;;;;;4192613;28;20323;-60
2023/12/04 03:46:35;;;;;;;12.23;5.73;;;-1.00;99.90;;;;;;4193318;28;20262;-58
2023/12/04 03:48:36;;;;;;;9.07;4.63;;;-1.00;99.90;;;;;;4192469;28;20269;-59
2023/12/04 03:50:37;;;;;;;7.20;4.23;;;-0.90;99.90;;;;;;4192173;28;20346;-59
2023/12/04 03:52:38;;;;;;;7.13;4.20;;;-0.90;99.90;;;;;;4192746;28;20289;-60
2023/12/04 03:54:39;;;;;;;6.73;4.07;;;-0.90;99.90;;;;;;4192517;28;20281;-59
2023/12/04 03:56:41;;;;;;;5.83;4.10;;;-0.90;99.90;;;;;;4192332;28;20263;-59
2023/12/04 03:58:42;;;;;;;7.07;4.13;;;-0.90;99.90;;;;;;4192735;28;20685;-58
2023/12/04 04:00:43;;;;;;;5.77;3.73;;;-0.90;99.90;;;;;;4193234;28;20254;-60
2023/12/04 04:02:45;;;;;;;7.93;4.03;;;-0.90;99.90;;;;;;4192356;28;20745;-60
2023/12/04 04:04:46;;;;;;;7.23;4.60;;;-0.90;99.90;;;;;;4193221;28;20399;-60
2023/12/04 04:06:47;;;;;;;6.03;4.43;;;-0.90;99.90;;;;;;4191882;28;20294;-59
2023/12/04 04:08:48;;;;;;;10.33;4.70;;;-0.90;99.90;;;;;;4193321;28;20292;-60
2023/12/04 04:10:49;;;;;;;7.70;4.20;;;-0.90;99.90;;;;;;4192384;28;20297;-59
2023/12/04 04:12:51;;;;;;;7.13;4.63;;;-0.90;99.90;;;;;;4192448;28;20270;-60
2023/12/04 04:14:52;;;;;;;8.97;5.00;;;-0.90;99.90;;;;;;4192630;28;20714;-57
2023/12/04 04:16:53;;;;;;;13.53;5.17;;;-0.90;99.90;;;;;;4192800;28;20753;-58
2023/12/04 04:18:54;;;;;;;9.77;5.20;;;-0.90;99.90;;;;;;4191564;28;20331;-58
2023/12/04 04:20:55;;;;;;;10.67;5.70;;;-0.90;99.90;;;;;;4192073;28;20346;-58
2023/12/04 04:22:56;;;;;;;9.33;4.90;;;-0.90;99.90;;;;;;4192675;28;20339;-60
2023/12/04 04:24:57;;;;;;;11.33;7.03;;;-0.90;99.90;;;;;;4191751;28;20363;-59
2023/12/04 04:26:59;;;;;;;14.57;6.57;;;-1.00;99.90;;;;;;4192699;28;20261;-61
2023/12/04 04:29:00;;;;;;;11.97;7.10;;;-1.00;99.90;;;;;;4191209;28;20386;-61
2023/12/04 04:31:01;;;;;;;11.90;6.60;;;-1.00;99.90;;;;;;4192397;28;20366;-59
2023/12/04 04:33:04;;;;;;;14.10;5.97;;;-1.00;99.90;;;;;;4191939;28;20295;-61
2023/12/04 04:35:05;;;;;;;10.83;6.57;;;-1.00;99.90;;;;;;4192239;28;20323;-59
2023/12/04 04:37:07;;;;;;;15.37;6.97;;;-1.10;99.90;;;;;;4191686;28;20281;-60
2023/12/04 04:39:08;;;;;;;12.13;6.83;;;-1.10;99.90;;;;;;4192714;28;20706;-59
2023/12/04 04:41:16;;;;;;;11.60;6.63;;;-1.00;99.90;;;;;;4191631;28;20803;-59
2023/12/04 04:43:17;;;;;;;11.60;6.43;;;-1.10;99.90;;;;;;4192906;28;20335;-60
2023/12/04 04:45:19;;;;;;;11.57;6.37;;;-1.10;99.90;;;;;;4191595;28;20319;-58
2023/12/04 04:47:20;;;;;;;12.03;6.67;;;-1.10;99.90;;;;;;4192186;28;20315;-59
2023/12/04 04:49:21;;;;;;;12.47;6.27;;;-1.20;99.90;;;;;;4192281;28;20557;-58
2023/12/04 04:51:22;;;;;;;11.53;6.03;;;-1.10;99.90;;;;;;4192181;28;20293;-59
2023/12/04 04:53:23;;;;;;;12.67;6.70;;;-1.10;99.90;;;;;;4191527;28;20277;-59
2023/12/04 04:55:24;;;;;;;10.13;6.27;;;-1.10;99.90;;;;;;4192349;28;20365;-57
2023/12/04 04:57:26;;;;;;;13.00;5.90;;;-1.10;99.90;;;;;;4191239;28;20257;-57
2023/12/04 04:59:30;;;;;;;12.17;6.53;;;-1.10;99.90;;;;;;4192254;28;20692;-57
2023/12/04 05:01:31;;;;;;;10.47;6.40;;;-1.10;99.90;;;;;;4193874;28;20284;-59
2023/12/04 05:03:32;;;;;;;15.27;6.30;;;-1.10;99.90;;;;;;4194600;28;20343;-59
2023/12/04 05:05:33;;;;;;;11.87;5.93;;;-1.10;99.90;;;;;;4194695;28;20273;-57
2023/12/04 05:07:34;;;;;;;12.20;6.10;;;-1.10;99.90;;;;;;4204550;28;20317;-59
2023/12/04 05:09:35;;;;;;;14.50;7.27;;;-1.10;99.90;;;;;;4212679;28;20261;-59
2023/12/04 05:11:36;;;;;;;11.97;6.63;;;-1.00;99.90;;;;;;4178773;28;20828;-59
2023/12/04 05:13:38;;;;;;;13.80;7.13;;;-1.00;99.90;;;;;;4179155;28;20341;-59
2023/12/04 05:15:39;;;;;;;13.60;7.37;;;-1.00;99.90;;;;;;4189111;28;20265;-61
2023/12/04 05:17:40;;;;;;;11.33;6.13;;;-1.00;99.90;;;;;;4195343;28;20257;-60
2023/12/04 05:19:41;;;;;;;13.63;7.87;;;-1.00;99.90;;;;;;4194477;28;20281;-61
2023/12/04 05:21:43;;;;;;;15.23;8.23;;;-1.00;99.90;;;;;;4194221;28;20331;-59
2023/12/04 05:23:44;;;;;;;11.53;6.17;;;-1.00;99.90;;;;;;4195110;28;20253;-60
2023/12/04 05:25:45;;;;;;;9.53;5.90;;;-1.00;99.90;;;;;;4193950;28;20273;-58
2023/12/04 05:27:46;;;;;;;14.23;6.43;;;-1.00;99.90;;;;;;4194527;28;20862;-57
2023/12/04 05:29:47;;;;;;;13.53;6.83;;;-1.00;99.90;;;;;;4194368;28;20834;-59
2023/12/04 05:31:49;;;;;;;13.27;6.07;;;-1.00;99.90;;;;;;4194351;28;20293;-59
2023/12/04 05:33:50;;;;;;;15.10;6.53;;;-1.00;99.90;;;;;;4193235;28;20285;-59
2023/12/04 05:35:52;;;;;;;15.13;6.47;;;-1.00;99.90;;;;;;4194199;28;20758;-57
2023/12/04 05:37:53;;;;;;;11.87;6.20;;;-1.00;99.90;;;;;;4193845;28;20338;-60
2023/12/04 05:39:54;;;;;;;11.67;6.47;;;-1.00;99.90;;;;;;4193235;28;20343;-58
2023/12/04 05:41:55;;;;;;;12.33;7.30;;;-1.00;99.90;;;;;;4193944;28;20269;-59
2023/12/04 05:43:56;;;;;;;12.60;6.67;;;-1.00;99.90;;;;;;4195114;28;20548;-53
2023/12/04 05:45:57;;;;;;;14.80;7.13;;;-1.00;99.90;;;;;;4192800;28;20672;-58
2023/12/04 05:47:59;;;;;;;11.43;6.20;;;-1.00;99.90;;;;;;4176173;28;20362;-58
2023/12/04 05:50:00;;;;;;;11.00;6.13;;;-1.00;99.90;;;;;;4194099;28;20265;-58
2023/12/04 05:52:01;;;;;;;13.37;6.63;;;-1.00;99.90;;;;;;4193289;28;20305;-58
2023/12/04 05:54:02;;;;;;;15.67;7.33;;;-1.00;99.90;;;;;;4193611;28;20262;-57
2023/12/04 05:56:06;;;;;;;15.00;8.10;;;-1.00;99.90;;;;;;4189640;28;20293;-58
2023/12/04 05:58:07;;;;;;;16.97;8.33;;;-0.90;99.90;;;;;;4178266;28;20451;-57
2023/12/04 06:00:12;;;;;;;13.63;6.40;;;-0.90;99.90;;;;;;4194633;28;20676;-60
2023/12/04 06:02:15;;;;;;;14.50;7.00;;;-0.90;99.90;;;;;;4194683;28;20289;-56
2023/12/04 06:04:16;;;;;;;14.87;7.53;;;-0.90;99.90;;;;;;4194795;28;20281;-57
2023/12/04 06:06:17;;;;;;;15.83;7.03;;;-1.00;99.90;;;;;;4193747;28;20281;-59
2023/12/04 06:08:18;;;;;;;10.80;6.17;;;-1.00;99.90;;;;;;4193362;28;20330;-59
2023/12/04 06:10:19;;;;;;;14.93;7.23;;;-0.90;99.90;;;;;;4193615;28;20269;-58
2023/12/04 06:12:20;;;;;;;16.37;8.00;;;-0.90;99.90;;;;;;4193562;28;20266;-59
2023/12/04 06:14:22;;;;;;;17.10;7.90;;;-0.90;99.90;;;;;;4194444;28;20806;-58
2023/12/04 06:16:23;;;;;;;15.83;8.13;;;-0.90;99.90;;;;;;4193516;28;20803;-58
2023/12/04 06:18:24;;;;;;;14.87;8.67;;;-1.00;99.90;;;;;;4194000;28;20320;-59
2023/12/04 06:20:25;;;;;;;16.40;7.73;;;-1.00;99.90;;;;;;4193428;28;20261;-59
2023/12/04 06:22:27;;;;;;;14.63;7.90;;;-1.00;99.90;;;;;;4192494;28;20266;-59
2023/12/04 06:24:28;;;;;;;13.47;8.03;;;-1.00;99.90;;;;;;4193378;28;20807;-56
2023/12/04 06:26:31;;;;;;;18.00;8.03;;;-1.00;99.90;;;;;;4194116;28;20262;-58
2023/12/04 06:28:33;;;;;;;15.23;8.13;;;-1.00;99.90;;;;;;4192885;28;20311;-58
2023/12/04 06:30:34;;;;;;;17.87;8.50;;;-1.00;99.90;;;;;;4194057;28;20327;-61
2023/12/04 06:32:35;;;;;;;19.43;8.37;;;-1.00;99.90;;;;;;4193530;28;20258;-59
2023/12/04 06:34:37;;;;;;;15.60;7.67;;;-1.00;99.90;;;;;;4193319;28;20261;-57
2023/12/04 06:36:40;;;;;;;14.80;7.10;;;-0.90;99.90;;;;;;4194011;28;20265;-58
2023/12/04 06:38:43;;;;;;;20.13;8.70;;;-0.90;99.90;;;;;;4193942;28;20706;-57
2023/12/04 06:40:44;;;;;;;18.30;8.73;;;-0.90;99.90;;;;;;4194166;28;20322;-58
2023/12/04 06:42:46;;;;;;;20.17;7.83;;;-0.90;99.90;;;;;;4193586;28;20265;-57
2023/12/04 06:44:47;;;;;;;16.83;8.00;;;-0.90;99.90;;;;;;4194130;28;20690;-58
2023/12/04 06:46:52;;;;;;;14.23;7.60;;;-0.80;99.90;;;;;;4193009;28;20273;-59
2023/12/04 06:48:57;;;;;;;18.53;8.30;;;-0.90;99.90;;;;;;4194070;28;20277;-59
2023/12/04 06:50:59;;;;;;;18.10;7.30;;;-0.90;99.90;;;;;;4192333;28;20297;-59
2023/12/04 06:53:00;;;;;;;17.17;9.23;;;-0.90;99.90;;;;;;4193011;28;20270;-58
2023/12/04 06:55:01;;;;;;;23.97;8.40;;;-1.00;99.90;;;;;;4192913;28;20398;-58
2023/12/04 06:57:03;;;;;;;13.60;7.67;;;-1.00;99.90;;;;;;4193039;28;20274;-57
2023/12/04 06:59:04;;;;;;;20.10;7.97;;;-1.00;99.90;;;;;;4192768;28;20291;-58
2023/12/04 07:01:05;;;;;;;17.77;8.13;;;-1.00;99.90;;;;;;4193073;28;20269;-53
2023/12/04 07:03:07;;;;;;;11.23;6.80;;;-1.00;99.90;;;;;;4193067;28;20315;-58
2023/12/04 07:05:08;;;;;;;17.37;7.13;;;-1.00;99.90;;;;;;4193677;28;20265;-58
2023/12/04 07:07:09;;;;;;;17.77;7.97;;;-0.90;99.90;;;;;;4192884;28;20319;-58
2023/12/04 07:09:10;;;;;;;18.07;7.47;;;-0.90;99.90;;;;;;4192827;28;20269;-58
2023/12/04 07:11:14;;;;;;;19.70;9.43;;;-0.80;99.90;;;;;;4193654;28;20335;-59
2023/12/04 07:13:16;;;;;;;17.37;7.70;;;-0.80;99.90;;;;;;4193209;28;20803;-56
2023/12/04 07:15:17;;;;;;;13.93;7.57;;;-0.80;99.90;;;;;;4193064;28;20273;-54
2023/12/04 07:17:18;;;;;;;18.13;7.93;;;-0.90;99.90;;;;;;4193539;28;20261;-56
2023/12/04 07:19:19;;;;;;;17.73;7.43;;;-0.90;99.90;;;;;;4193616;28;20311;-57
2023/12/04 07:21:21;;;;;;;16.10;7.23;;;-1.00;99.90;;;;;;4192352;28;20269;-57
2023/12/04 07:23:22;;;;;;;13.40;6.97;;;-1.00;99.90;;;;;;4192515;28;20335;-56
2023/12/04 07:25:24;;;;;;;15.90;6.87;;;-0.90;99.90;;;;;;4192958;28;20657;-57
2023/12/04 07:27:25;;;;;;;17.40;7.47;;;-0.90;99.90;;;;;;4193236;28;20265;-58
2023/12/04 07:29:26;;;;;;;13.37;7.27;;;-0.90;99.90;;;;;;4193231;28;20269;-57
2023/12/04 07:31:27;;;;;;;14.80;7.40;;;-0.80;99.90;;;;;;4192515;28;20297;-58
2023/12/04 07:33:29;;;;;;;15.70;8.07;;;-0.80;99.90;;;;;;4193246;28;20327;-58
2023/12/04 07:35:30;;;;;;;16.87;8.60;;;-0.80;99.90;;;;;;4192358;28;20262;-58
2023/12/04 07:37:32;;;;;;;14.77;8.13;;;-0.80;99.90;;;;;;4192198;28;20319;-58
2023/12/04 07:39:33;;;;;;;13.33;6.53;;;-0.80;99.90;;;;;;4193003;28;20326;-57
2023/12/04 07:41:34;;;;;;;20.03;7.80;;;-0.80;99.90;;;;;;4191922;28;20402;-59
2023/12/04 07:43:35;;;;;;;27.13;10.17;;;-0.80;99.90;;;;;;4191982;28;20269;-56
2023/12/04 07:45:36;;;;;;;58.37;18.53;;;-0.70;99.90;;;;;;4192406;28;20338;-57
2023/12/04 07:47:38;;;;;;;44.23;15.03;;;-0.60;99.90;;;;;;4193007;28;20362;-59
2023/12/04 07:49:39;;;;;;;36.53;11.37;;;-0.50;99.90;;;;;;4192643;28;20312;-58
2023/12/04 07:51:40;;;;;;;32.13;10.67;;;-0.50;99.90;;;;;;4191420;28;20309;-58
2023/12/04 07:53:41;;;;;;;32.20;10.27;;;-0.50;99.90;;;;;;4192527;28;20358;-60
2023/12/04 07:55:43;;;;;;;43.57;15.17;;;-0.40;99.90;;;;;;4191770;28;20281;-58
2023/12/04 07:57:45;;;;;;;39.03;12.90;;;-0.30;99.90;;;;;;4193111;28;20326;-59
2023/12/04 07:59:46;;;;;;;26.57;12.37;;;-0.20;99.90;;;;;;4192751;28;20300;-57
2023/12/04 08:01:47;;;;;;;47.70;15.23;;;-0.20;99.90;;;;;;4193073;28;20269;-59
2023/12/04 08:03:48;;;;;;;27.07;10.40;;;-0.20;99.90;;;;;;4191925;28;20269;-57
2023/12/04 08:05:51;;;;;;;22.47;10.43;;;-0.10;99.90;;;;;;4192792;28;20830;-57
2023/12/04 08:07:52;;;;;;;41.07;15.63;;;-0.10;99.90;;;;;;4192075;28;20522;-56
2023/12/04 08:09:53;;;;;;;29.87;12.07;;;0.00;99.90;;;;;;4192328;28;20265;-58
2023/12/04 08:11:54;;;;;;;22.07;8.17;;;-0.10;99.90;;;;;;4191664;28;20761;-56
2023/12/04 08:13:55;;;;;;;14.17;6.00;;;0.00;99.90;;;;;;4190987;28;21145;-58
2023/12/04 08:15:57;;;;;;;9.97;4.83;;;0.00;99.90;;;;;;4191856;28;20327;-59
2023/12/04 08:17:58;;;;;;;12.70;6.53;;;0.00;99.90;;;;;;4192566;28;20331;-58
2023/12/04 08:20:00;;;;;;;17.43;5.90;;;0.00;99.90;;;;;;4192764;28;20811;-58
2023/12/04 08:22:01;;;;;;;14.53;6.73;;;0.10;99.90;;;;;;4191487;28;20315;-57
2023/12/04 08:24:02;;;;;;;9.87;5.57;;;0.10;99.90;;;;;;4192736;28;20257;-59
2023/12/04 08:26:04;;;;;;;41.43;14.77;;;0.20;99.90;;;;;;4192027;28;20585;-59
2023/12/04 08:28:05;;;;;;;27.23;10.87;;;0.20;99.90;;;;;;4192663;28;20311;-55
2023/12/04 08:30:07;;;;;;;27.23;10.47;;;0.20;99.90;;;;;;4191324;28;20656;-57
2023/12/04 08:32:08;;;;;;;25.93;10.27;;;0.20;99.90;;;;;;4191621;28;20286;-59
2023/12/04 08:34:09;;;;;;;24.97;10.57;;;0.30;99.90;;;;;;4192158;28;20303;-57
2023/12/04 08:36:12;;;;;;;17.57;7.70;;;0.30;99.90;;;;;;4191246;28;20380;-57
2023/12/04 08:38:13;;;;;;;9.77;5.30;;;0.20;99.90;;;;;;4192510;28;20281;-58
2023/12/04 08:40:14;;;;;;;7.67;4.97;;;0.20;99.90;;;;;;4191407;28;20347;-58
2023/12/04 08:42:15;;;;;;;12.63;6.33;;;0.10;99.90;;;;;;4191282;28;20311;-57
2023/12/04 08:44:16;;;;;;;8.57;4.53;;;0.10;99.90;;;;;;4192155;28;20692;-56
2023/12/04 08:46:17;;;;;;;8.30;4.83;;;0.10;99.90;;;;;;4192730;28;20683;-58
2023/12/04 08:48:18;;;;;;;8.90;5.47;;;0.10;99.90;;;;;;4191621;28;20274;-54
2023/12/04 08:50:20;;;;;;;9.77;5.37;;;0.10;99.90;;;;;;4192606;28;21081;-59
2023/12/04 08:52:21;;;;;;;11.90;5.40;;;0.20;99.90;;;;;;4191681;28;20785;-56
2023/12/04 08:54:22;;;;;;;10.10;5.30;;;0.20;99.90;;;;;;4192638;28;20757;-58
2023/12/04 08:56:24;;;;;;;13.07;6.10;;;0.20;99.90;;;;;;4190827;28;20282;-58
2023/12/04 08:58:25;;;;;;;9.07;4.90;;;0.20;99.90;;;;;;4191703;28;20343;-60
2023/12/04 09:00:26;;;;;;;7.43;5.00;;;0.20;99.90;;;;;;4191197;28;20273;-57
2023/12/04 09:02:27;;;;;;;10.67;5.50;;;0.20;99.90;;;;;;4192287;28;20327;-58
2023/12/04 09:04:28;;;;;;;8.07;4.97;;;0.20;99.90;;;;;;4191129;28;20319;-56
2023/12/04 09:06:29;;;;;;;9.63;4.97;;;0.30;99.90;;;;;;4191081;28;20347;-58
2023/12/04 09:08:32;;;;;;;11.33;5.33;;;0.30;99.90;;;;;;4191645;28;20278;-54
2023/12/04 09:10:33;;;;;;;8.87;5.33;;;0.30;99.90;;;;;;4191433;28;20350;-58
2023/12/04 09:12:36;;;;;;;7.27;4.77;;;0.20;99.90;;;;;;4173309;28;20293;-59
2023/12/04 09:14:37;;;;;;;7.87;4.97;;;0.20;99.90;;;;;;4158960;28;20309;-58
2023/12/04 09:16:39;;;;;;;10.43;5.50;;;0.10;99.90;;;;;;4159608;28;20735;-57
2023/12/04 09:18:40;;;;;;;7.67;5.10;;;0.20;99.90;;;;;;4158833;28;20735;-58
2023/12/04 09:20:41;;;;;;;9.03;4.53;;;0.10;99.90;;;;;;4159121;28;20270;-57
2023/12/04 09:22:42;;;;;;;8.73;4.97;;;0.10;99.90;;;;;;4158316;28;20833;-56
2023/12/04 09:24:44;;;;;;;10.30;5.63;;;0.20;99.90;;;;;;4159602;28;20561;-58
2023/12/04 09:26:45;;;;;;;10.77;5.43;;;0.20;99.90;;;;;;4158425;28;20766;-58
2023/12/04 09:28:46;;;;;;;7.87;4.93;;;0.30;99.90;;;;;;4159501;28;20744;-57
2023/12/04 09:30:47;;;;;;;9.87;5.40;;;0.30;99.90;;;;;;4158621;28;20294;-57
2023/12/04 09:32:49;;;;;;;8.40;5.30;;;0.40;99.90;;;;;;4159297;28;20356;-57
2023/12/04 09:34:50;;;;;;;9.63;5.83;;;0.40;99.90;;;;;;4158876;28;20271;-58
2023/12/04 09:36:51;;;;;;;10.87;5.37;;;0.40;99.90;;;;;;4159049;28;20267;-58
2023/12/04 09:38:52;;;;;;;8.67;5.23;;;0.50;99.90;;;;;;4158844;28;20341;-55
2023/12/04 09:40:58;;;;;;;9.73;5.77;;;0.40;99.90;;;;;;4159092;28;20259;-56
2023/12/04 09:42:59;;;;;;;9.00;5.10;;;0.40;99.90;;;;;;4158612;28;20271;-57
2023/12/04 09:45:01;;;;;;;10.93;5.93;;;0.30;99.90;;;;;;4158609;28;20332;-59
2023/12/04 09:47:04;;;;;;;12.90;5.37;;;0.20;99.90;;;;;;4160274;28;20275;-58
2023/12/04 09:49:07;;;;;;;11.10;6.60;;;0.10;99.90;;;;;;4160039;28;20329;-59
2023/12/04 09:51:10;;;;;;;13.57;6.53;;;0.00;99.90;;;;;;4161918;28;20639;-58
2023/12/04 09:53:13;;;;;;;11.33;6.40;;;0.10;99.90;;;;;;4161488;28;20290;-57
2023/12/04 09:55:16;;;;;;;9.43;5.20;;;0.00;99.90;;;;;;4161779;28;20271;-59
2023/12/04 09:57:17;;;;;;;14.77;6.33;;;0.00;99.90;;;;;;4161187;28;20274;-57
2023/12/04 09:59:23;;;;;;;9.67;6.10;;;0.00;99.90;;;;;;4161950;28;20275;-61
2023/12/04 10:01:24;;;;;;;10.37;5.73;;;0.00;99.90;;;;;;4161048;28;20266;-58
2023/12/04 10:03:26;;;;;;;9.80;5.73;;;0.00;99.90;;;;;;4162238;28;20316;-57
2023/12/04 10:05:27;;;;;;;12.17;6.17;;;-0.10;99.90;;;;;;4161460;28;20347;-60
2023/12/04 10:07:28;;;;;;;12.60;5.93;;;-0.10;99.90;;;;;;4161639;28;20289;-58
2023/12/04 10:09:29;;;;;;;13.87;5.73;;;-0.10;99.90;;;;;;4161593;28;20270;-56
2023/12/04 10:11:31;;;;;;;9.53;5.63;;;-0.10;99.90;;;;;;4161736;28;20271;-57
2023/12/04 10:13:32;;;;;;;14.73;5.87;;;-0.10;99.90;;;;;;4177244;28;20281;-59
2023/12/04 10:15:33;;;;;;;10.60;6.07;;;0.00;99.90;;;;;;4194426;28;20257;-59
2023/12/04 10:17:39;;;;;;;12.83;7.00;;;0.00;99.90;;;;;;4193757;28;20269;-57
2023/12/04 10:19:40;;;;;;;10.73;5.57;;;0.10;99.90;;;;;;4194364;28;20265;-58
2023/12/04 10:21:41;;;;;;;9.80;5.93;;;0.20;99.90;;;;;;4193518;28;20331;-59
2023/12/04 10:23:44;;;;;;;25.50;9.30;;;0.30;99.90;;;;;;4194219;28;20311;-55
2023/12/04 10:25:45;;;;;;;11.73;5.40;;;0.50;99.90;;;;;;4194301;28;20269;-55
2023/12/04 10:27:47;;;;;;;10.77;6.20;;;0.50;99.90;;;;;;4192911;28;20331;-59
2023/12/04 10:29:52;;;;;;;9.03;5.07;;;0.50;99.90;;;;;;4194603;28;20732;-56